Time;durP1;ratioP1;P1;durP2;ratioP2;P2;SDS_P1;SDS_P2;PMS_P1;PMS_P2;Temp;Humidity;BMP_temperature;BMP_pressure;BME280_temperature;BME280_humidity;BME280_pressure;Samples;Min_cycle;Max_cycle;Signal;HPM_P1;HPM_P2
2023/01/29 00:01:54;;;;;;;27.58;18.00;;;;;;;3.85;52.61;102956.19;6181937;23;20013;-69
2023/01/29 00:04:20;;;;;;;28.98;18.88;;;;;;;3.83;52.82;102951.78;6182166;23;20096;-69
2023/01/29 00:06:47;;;;;;;31.70;19.55;;;;;;;3.77;52.52;102946.53;6182164;23;20088;-69
2023/01/29 00:09:13;;;;;;;29.15;19.52;;;;;;;3.72;52.75;102951.00;6182441;22;20017;-69
2023/01/29 00:11:40;;;;;;;31.85;20.00;;;;;;;3.71;52.69;102949.19;6181837;23;20092;-68
2023/01/29 00:14:07;;;;;;;32.97;20.40;;;;;;;3.71;52.77;102943.88;6155838;23;20020;-69
2023/01/29 00:16:33;;;;;;;36.10;19.90;;;;;;;3.73;52.52;102943.91;6182349;23;20016;-69
2023/01/29 00:19:01;;;;;;;30.15;19.60;;;;;;;3.75;52.74;102936.78;6182275;23;20017;-69
2023/01/29 00:21:32;;;;;;;30.08;19.25;;;;;;;3.74;52.90;102938.56;6182192;23;20017;-69
2023/01/29 00:23:59;;;;;;;32.38;18.80;;;;;;;3.77;52.74;102932.34;6181977;23;20092;-69
2023/01/29 00:26:26;;;;;;;28.60;18.45;;;;;;;3.76;52.65;102923.50;6182102;23;20024;-69
2023/01/29 00:28:55;;;;;;;31.35;19.17;;;;;;;3.78;52.94;102920.81;6156081;23;20037;-68
2023/01/29 00:31:23;;;;;;;32.85;20.20;;;;;;;3.78;52.80;102923.47;6181896;23;20402;-68
2023/01/29 00:33:51;;;;;;;30.85;19.42;;;;;;;3.76;52.76;102917.31;6155582;23;20040;-69
2023/01/29 00:36:19;;;;;;;29.60;18.88;;;;;;;3.75;52.84;102916.41;6155584;22;20044;-68
2023/01/29 00:38:53;;;;;;;30.10;18.70;;;;;;;3.75;52.73;102916.41;6181969;23;20017;-68
2023/01/29 00:46:52;;;;;;;27.60;17.90;;;;;;;3.68;52.87;102909.38;6155756;23;20404;-69
2023/01/29 00:49:19;;;;;;;27.17;17.55;;;;;;;3.67;52.60;102901.41;6155675;23;20780;-68
2023/01/29 00:54:31;;;;;;;27.50;17.65;;;;;;;3.61;52.76;102891.72;6155691;23;20513;-69
2023/01/29 00:56:59;;;;;;;27.15;16.75;;;;;;;3.58;52.66;102889.09;6181895;23;20021;-69
2023/01/29 00:59:26;;;;;;;27.33;16.40;;;;;;;3.56;52.69;102882.91;6155387;22;20025;-69
2023/01/29 01:04:38;;;;;;;27.98;17.40;;;;;;;3.50;52.54;102880.31;6155732;23;20017;-69
2023/01/29 01:07:05;;;;;;;29.13;17.05;;;;;;;3.47;52.51;102883.00;6182044;23;20013;-69
2023/01/29 01:12:20;;;;;;;27.17;16.65;;;;;;;3.43;52.73;102875.97;6181892;23;20456;-68
2023/01/29 01:14:47;;;;;;;27.73;16.65;;;;;;;3.40;52.54;102886.59;6155471;23;20017;-68
2023/01/29 01:17:14;;;;;;;27.40;16.75;;;;;;;3.37;52.62;102886.63;6155504;23;20388;-68
2023/01/29 01:19:41;;;;;;;26.52;17.70;;;;;;;3.33;52.42;102885.78;6155353;23;20032;-68
2023/01/29 01:22:07;;;;;;;25.92;16.58;;;;;;;3.28;52.49;102881.41;6181576;23;20017;-68
2023/01/29 01:24:34;;;;;;;28.30;17.13;;;;;;;3.22;52.48;102882.34;6181492;23;20070;-68
2023/01/29 01:27:01;;;;;;;29.08;17.00;;;;;;;3.16;52.38;102885.03;6182011;23;20013;-69
2023/01/29 01:29:27;;;;;;;25.30;16.27;;;;;;;3.11;52.41;102885.06;6181723;23;20467;-69
2023/01/29 01:31:54;;;;;;;26.75;16.40;;;;;;;3.07;52.41;102887.78;6181790;23;20080;-69
2023/01/29 01:34:22;;;;;;;26.02;15.43;;;;;;;3.03;52.48;102891.34;6155537;22;20021;-68
2023/01/29 01:36:49;;;;;;;26.63;15.93;;;;;;;2.99;52.37;102879.88;6182004;23;20099;-69
2023/01/29 01:39:15;;;;;;;26.88;16.67;;;;;;;2.95;52.48;102888.69;6155082;23;20052;-68
2023/01/29 01:41:42;;;;;;;27.42;16.83;;;;;;;2.91;52.46;102888.72;6180919;23;20037;-68
2023/01/29 01:44:46;;;;;;;28.25;16.55;;;;;;;2.90;52.63;102884.31;6155508;23;20513;-68
2023/01/29 01:47:14;;;;;;;27.08;16.17;;;;;;;2.88;52.60;102889.63;6181465;22;20018;-69
2023/01/29 01:49:42;;;;;;;27.58;16.52;;;;;;;2.88;52.69;102885.22;6181582;23;20024;-69
2023/01/29 01:52:12;;;;;;;26.25;15.63;;;;;;;2.90;52.87;102900.25;6181392;23;20021;-69
2023/01/29 01:54:39;;;;;;;27.67;15.30;;;;;;;2.91;52.58;102892.28;6181531;23;20044;-69
2023/01/29 01:57:14;;;;;;;26.02;16.30;;;;;;;2.95;52.79;102885.16;6181937;23;20013;-68
2023/01/29 01:59:51;;;;;;;27.77;17.38;;;;;;;2.96;52.75;102893.13;6130841;23;20017;-69
2023/01/29 02:10:44;;;;;;;25.63;15.23;;;;;;;2.94;52.57;102896.69;6155216;23;20096;-68
2023/01/29 02:13:15;;;;;;;32.42;17.02;;;;;;;2.92;52.64;102899.34;6180899;23;20092;-68
2023/01/29 02:15:45;;;;;;;28.83;17.77;;;;;;;2.93;52.68;102897.56;6154988;23;20096;-69
2023/01/29 02:18:13;;;;;;;29.55;18.00;;;;;;;2.92;52.87;102899.34;6186157;23;20013;-68
2023/01/29 02:20:49;;;;;;;28.55;17.10;;;;;;;2.92;52.73;102901.13;6157891;22;20025;-69
2023/01/29 02:23:36;;;;;;;27.75;16.67;;;;;;;2.94;52.87;102913.47;6181339;23;20037;-69
2023/01/29 02:26:22;;;;;;;29.35;17.45;;;;;;;2.95;52.84;102904.63;6131163;23;20017;-68
2023/01/29 02:29:21;;;;;;;28.95;16.17;;;;;;;2.95;52.95;102906.41;6155301;23;20040;-69
2023/01/29 02:32:03;;;;;;;27.15;16.95;;;;;;;2.96;52.96;102911.69;6181101;23;20129;-69
2023/01/29 02:37:54;;;;;;;32.45;19.30;;;;;;;3.00;52.86;102900.19;6146801;23;20017;-69
2023/01/29 02:40:42;;;;;;;28.27;17.35;;;;;;;3.01;52.84;102901.97;6153363;22;20462;-68
2023/01/29 02:43:15;;;;;;;31.52;18.42;;;;;;;3.02;52.91;102913.47;6179899;23;20017;-69
2023/01/29 02:46:02;;;;;;;32.17;19.00;;;;;;;3.01;52.96;102899.31;6179665;23;20508;-69
2023/01/29 02:48:40;;;;;;;32.30;19.17;;;;;;;3.05;52.92;102908.13;6179657;23;20017;-68
2023/01/29 02:51:23;;;;;;;30.13;19.15;;;;;;;3.06;53.21;102917.84;6179435;23;20139;-69
2023/01/29 02:53:58;;;;;;;32.70;18.75;;;;;;;3.07;53.04;102914.31;6129050;23;20021;-69
2023/01/29 02:56:38;;;;;;;36.20;20.92;;;;;;;3.06;53.01;102902.81;6154701;23;20048;-69
2023/01/29 02:59:14;;;;;;;34.13;21.30;;;;;;;3.05;52.96;102901.06;6154679;23;20013;-68
2023/01/29 03:01:50;;;;;;;35.40;20.83;;;;;;;3.03;53.15;102899.31;6181100;22;20017;-69
2023/01/29 03:04:26;;;;;;;35.47;21.52;;;;;;;3.05;53.09;102902.81;6155426;23;20340;-68
2023/01/29 03:06:59;;;;;;;35.10;21.10;;;;;;;3.07;53.27;102899.25;6181896;23;20013;-68
2023/01/29 03:09:35;;;;;;;34.72;20.50;;;;;;;3.10;53.26;102901.03;6155546;23;20017;-68
2023/01/29 03:12:32;;;;;;;37.78;22.23;;;;;;;3.12;53.42;102897.47;6155422;23;20017;-68
2023/01/29 03:15:13;;;;;;;37.58;22.83;;;;;;;3.17;53.49;102906.28;6155408;23;20020;-68
2023/01/29 03:18:00;;;;;;;35.50;21.45;;;;;;;3.19;53.40;102895.63;6155213;22;20045;-68
2023/01/29 03:20:34;;;;;;;40.03;22.50;;;;;;;3.22;53.42;102900.03;6154815;22;20021;-69
2023/01/29 03:23:17;;;;;;;37.85;22.95;;;;;;;3.24;53.38;102901.78;6130141;23;20456;-69
2023/01/29 03:34:15;;;;;;;38.47;23.52;;;;;;;3.37;53.59;102899.91;6154738;23;20017;-68
2023/01/29 03:36:55;;;;;;;41.92;24.55;;;;;;;3.38;53.64;102899.03;6180882;23;20507;-68
2023/01/29 03:39:28;;;;;;;38.75;23.50;;;;;;;3.38;53.54;102899.03;6180696;23;20067;-68
2023/01/29 03:42:04;;;;;;;35.88;22.85;;;;;;;3.37;53.61;102882.22;6263315;22;20024;-69
2023/01/29 03:44:40;;;;;;;41.17;23.60;;;;;;;3.41;53.71;102888.38;6155685;22;20016;-67
2023/01/29 03:47:17;;;;;;;42.35;23.45;;;;;;;3.44;53.78;102883.91;6284849;22;20017;-69
2023/01/29 03:49:59;;;;;;;43.90;24.25;;;;;;;3.47;53.98;102883.00;6285134;22;20028;-68
2023/01/29 03:52:44;;;;;;;38.75;23.83;;;;;;;3.51;53.94;102876.78;6285525;22;20040;-69
2023/01/29 03:55:27;;;;;;;40.53;25.20;;;;;;;3.55;53.89;102870.53;6285840;22;20078;-69
2023/01/29 03:57:59;;;;;;;43.00;25.65;;;;;;;3.58;53.90;102870.50;6285216;22;20096;-69
2023/01/29 04:00:37;;;;;;;42.60;24.20;;;;;;;3.61;53.87;102875.78;6285190;22;20032;-69
2023/01/29 04:03:18;;;;;;;44.10;25.92;;;;;;;3.64;53.94;102875.75;6285550;22;20454;-68
2023/01/29 04:06:21;;;;;;;42.05;26.30;;;;;;;3.68;54.00;102872.16;6283273;22;20125;-69
2023/01/29 04:09:07;;;;;;;39.92;23.85;;;;;;;3.71;53.96;102848.22;6284805;22;20017;-69
2023/01/29 04:11:43;;;;;;;42.83;25.05;;;;;;;3.71;53.94;102847.34;6284293;22;20036;-69
2023/01/29 04:14:12;;;;;;;41.90;26.80;;;;;;;3.70;53.89;102849.13;6180678;23;20372;-69
2023/01/29 04:16:43;;;;;;;43.28;26.52;;;;;;;3.71;54.09;102855.31;6284684;22;20017;-70
2023/01/29 04:19:15;;;;;;;42.38;26.55;;;;;;;3.73;54.16;102858.88;6284575;22;20043;-69
2023/01/29 04:21:44;;;;;;;40.83;26.08;;;;;;;3.74;54.04;102850.00;6284121;22;20017;-70
2023/01/29 04:24:12;;;;;;;43.67;26.27;;;;;;;3.75;54.15;102851.75;6259206;22;20100;-69
2023/01/29 04:27:13;;;;;;;41.90;26.20;;;;;;;3.77;54.34;102855.28;6284864;22;20448;-69
2023/01/29 04:30:03;;;;;;;41.28;26.08;;;;;;;3.79;54.24;102854.38;6284554;22;20071;-72
2023/01/29 04:33:02;;;;;;;41.35;26.35;;;;;;;3.81;54.25;102851.69;6180730;23;20048;-69
2023/01/29 04:35:47;;;;;;;43.25;25.70;;;;;;;3.81;54.29;102855.22;6284888;22;20021;-69
2023/01/29 04:38:51;;;;;;;38.15;24.30;;;;;;;3.82;54.35;102843.69;6284537;22;20355;-68
2023/01/29 04:41:41;;;;;;;40.65;25.52;;;;;;;3.85;54.38;102826.84;6180646;23;20027;-69
2023/01/29 04:44:17;;;;;;;41.67;25.55;;;;;;;3.88;54.41;102831.25;6184275;23;20047;-69
2023/01/29 04:47:37;;;;;;;42.97;25.30;;;;;;;3.87;54.46;102810.88;6181429;23;20017;-69
2023/01/29 04:50:10;;;;;;;42.50;25.13;;;;;;;3.84;54.21;102798.50;6213647;23;20017;-69
2023/01/29 04:52:39;;;;;;;41.20;25.13;;;;;;;3.78;54.35;102795.91;6187989;23;20347;-68
2023/01/29 04:55:34;;;;;;;41.55;25.75;;;;;;;3.75;54.44;102793.28;6167289;23;20021;-69
2023/01/29 04:58:09;;;;;;;42.47;24.03;;;;;;;3.76;54.39;102779.13;6154693;23;20390;-69
2023/01/29 05:00:43;;;;;;;40.45;25.80;;;;;;;3.76;54.64;102787.97;6180597;23;20731;-69
2023/01/29 05:03:13;;;;;;;42.50;24.70;;;;;;;3.76;54.52;102790.63;6180402;23;20184;-68
2023/01/29 05:05:42;;;;;;;41.88;24.75;;;;;;;3.78;54.74;102794.13;6180782;23;20023;-69
2023/01/29 05:08:13;;;;;;;38.85;24.00;;;;;;;3.81;54.69;102788.78;6154726;23;20047;-69
2023/01/29 05:10:41;;;;;;;40.80;24.73;;;;;;;3.85;54.72;102791.41;6180622;23;20344;-69
2023/01/29 05:13:10;;;;;;;37.20;23.90;;;;;;;3.90;54.78;102794.88;6180224;23;20013;-69
2023/01/29 05:15:59;;;;;;;39.17;25.33;;;;;;;3.94;54.85;102791.28;6180332;23;20463;-69
2023/01/29 05:18:25;;;;;;;41.42;23.70;;;;;;;3.97;54.99;102788.59;6180120;23;20020;-69
2023/01/29 05:20:55;;;;;;;38.60;24.20;;;;;;;3.98;54.90;102777.94;6180741;23;20021;-69
2023/01/29 05:23:22;;;;;;;38.80;23.92;;;;;;;4.02;54.80;102774.34;6180086;23;20017;-68
2023/01/29 05:25:50;;;;;;;40.83;24.50;;;;;;;4.07;54.97;102776.94;6180594;23;20533;-69
2023/01/29 05:28:17;;;;;;;38.78;24.77;;;;;;;4.10;54.99;102774.25;6180472;23;20478;-69
2023/01/29 05:30:47;;;;;;;39.95;24.48;;;;;;;4.13;55.05;102771.53;6180987;23;20100;-69
2023/01/29 05:33:14;;;;;;;41.15;24.63;;;;;;;4.16;54.93;102774.16;6180354;23;20021;-69
2023/01/29 05:35:41;;;;;;;36.92;22.48;;;;;;;4.19;54.89;102765.25;6180269;22;20026;-69
2023/01/29 05:38:09;;;;;;;39.83;24.33;;;;;;;4.25;54.97;102767.84;6180950;23;20020;-69
2023/01/29 05:40:36;;;;;;;41.08;25.05;;;;;;;4.29;54.82;102766.88;6180181;23;20013;-69
2023/01/29 05:43:04;;;;;;;39.50;24.10;;;;;;;4.32;55.00;102778.38;6180681;23;20320;-69
2023/01/29 05:45:32;;;;;;;37.63;22.90;;;;;;;4.35;54.91;102778.31;6154177;22;20045;-69
2023/01/29 05:47:59;;;;;;;38.78;23.33;;;;;;;4.38;54.96;102775.63;6154519;23;20013;-70
2023/01/29 05:50:26;;;;;;;38.10;23.85;;;;;;;4.41;55.01;102777.34;6180771;23;20021;-70
2023/01/29 05:53:00;;;;;;;37.60;23.40;;;;;;;4.44;54.84;102782.63;6180748;22;20317;-70
2023/01/29 05:55:31;;;;;;;39.33;25.20;;;;;;;4.47;55.01;102782.59;6180505;23;20013;-69
2023/01/29 05:57:57;;;;;;;38.20;24.38;;;;;;;4.49;54.89;102779.94;6180731;23;20119;-70
2023/01/29 06:00:24;;;;;;;40.05;24.70;;;;;;;4.51;54.90;102794.97;6180436;23;20083;-69
2023/01/29 06:02:50;;;;;;;43.25;25.42;;;;;;;4.53;54.92;102794.94;6180036;23;20020;-70
2023/01/29 06:05:17;;;;;;;39.28;25.17;;;;;;;4.53;54.99;102794.94;6180628;22;20054;-70
2023/01/29 06:07:44;;;;;;;40.40;24.38;;;;;;;4.53;54.95;102800.25;6180579;22;20313;-69
2023/01/29 06:10:16;;;;;;;43.58;25.45;;;;;;;4.52;54.96;102799.38;6154626;23;20024;-70
2023/01/29 06:12:43;;;;;;;36.33;23.58;;;;;;;4.53;55.00;102810.91;6180498;23;20321;-71
2023/01/29 06:15:11;;;;;;;38.05;24.30;;;;;;;4.53;55.00;102814.44;6180395;23;20452;-69
2023/01/29 06:17:38;;;;;;;40.20;24.27;;;;;;;4.56;55.01;102817.06;6180922;22;20058;-69
2023/01/29 06:20:05;;;;;;;38.47;24.02;;;;;;;4.57;55.11;102816.16;6154609;23;20070;-70
2023/01/29 06:22:32;;;;;;;38.97;24.15;;;;;;;4.59;55.08;102813.47;6180725;23;20408;-69
2023/01/29 06:24:59;;;;;;;37.97;23.05;;;;;;;4.61;55.10;102801.03;6155375;23;20063;-69
2023/01/29 06:27:25;;;;;;;39.85;25.70;;;;;;;4.62;55.15;102797.47;6180777;23;20108;-70
2023/01/29 06:29:52;;;;;;;42.78;25.60;;;;;;;4.64;55.12;102783.22;6180848;23;20013;-70
2023/01/29 06:32:19;;;;;;;37.47;24.35;;;;;;;4.66;55.17;102780.53;6154304;23;20033;-69
2023/01/29 06:34:45;;;;;;;40.92;24.58;;;;;;;4.66;55.04;102770.78;6180091;23;20021;-69
2023/01/29 06:37:15;;;;;;;39.58;25.80;;;;;;;4.69;55.16;102772.50;6180193;23;20084;-69
2023/01/29 06:39:41;;;;;;;42.50;25.17;;;;;;;4.69;55.15;102780.50;6180162;23;20013;-69
2023/01/29 06:42:08;;;;;;;43.97;25.70;;;;;;;4.70;55.17;102776.94;6179739;23;20021;-69
2023/01/29 06:44:35;;;;;;;43.25;25.27;;;;;;;4.70;55.39;102776.94;6180064;23;20088;-70
2023/01/29 06:47:02;;;;;;;38.08;25.00;;;;;;;4.70;55.33;102771.63;6180102;23;20013;-70
2023/01/29 06:49:29;;;;;;;41.33;25.80;;;;;;;4.71;55.32;102773.38;6179786;23;20386;-70
2023/01/29 06:51:56;;;;;;;42.15;24.95;;;;;;;4.72;55.38;102769.81;6179409;23;20074;-70
2023/01/29 06:54:22;;;;;;;41.63;25.45;;;;;;;4.73;55.30;102769.78;6179910;23;20017;-69
2023/01/29 06:56:50;;;;;;;45.10;27.98;;;;;;;4.72;55.38;102770.69;6180055;22;20017;-70
2023/01/29 06:59:17;;;;;;;45.97;27.83;;;;;;;4.73;55.35;102768.91;6179800;23;20390;-70
2023/01/29 07:01:44;;;;;;;41.25;26.25;;;;;;;4.72;55.42;102759.16;6179754;23;20096;-70
2023/01/29 07:04:10;;;;;;;42.83;26.02;;;;;;;4.72;55.31;102753.84;6179709;23;20021;-70
2023/01/29 07:06:37;;;;;;;42.40;26.65;;;;;;;4.72;55.39;102765.34;6179867;23;20021;-69
2023/01/29 07:09:04;;;;;;;46.55;25.98;;;;;;;4.73;55.35;102767.13;6180049;23;20503;-69
2023/01/29 07:11:31;;;;;;;45.88;28.30;;;;;;;4.74;55.44;102773.31;6179533;23;20096;-70
2023/01/29 07:13:57;;;;;;;43.63;27.10;;;;;;;4.74;55.38;102774.19;6179413;23;20033;-69
2023/01/29 07:16:25;;;;;;;45.47;26.98;;;;;;;4.74;55.21;102782.19;6179758;23;20019;-70
2023/01/29 07:18:52;;;;;;;45.10;28.52;;;;;;;4.76;55.49;102776.84;6179843;23;20071;-70
2023/01/29 07:21:18;;;;;;;43.17;27.08;;;;;;;4.79;55.48;102779.44;6179765;23;20021;-69
2023/01/29 07:23:45;;;;;;;44.80;26.65;;;;;;;4.80;55.71;102770.56;6179498;23;20040;-69
2023/01/29 07:26:12;;;;;;;43.30;26.25;;;;;;;4.82;55.60;102768.75;6180097;23;20017;-69
2023/01/29 07:28:40;;;;;;;43.45;27.08;;;;;;;4.85;55.65;102770.47;6179762;23;20502;-69
2023/01/29 07:31:07;;;;;;;46.45;28.38;;;;;;;4.87;55.60;102766.00;6153443;23;20455;-69
2023/01/29 07:33:35;;;;;;;43.60;26.75;;;;;;;4.91;55.62;102765.94;6179668;23;20024;-69
2023/01/29 07:36:06;;;;;;;41.38;25.98;;;;;;;4.93;55.61;102760.59;6179523;23;20513;-69
2023/01/29 07:38:33;;;;;;;45.13;27.92;;;;;;;4.96;55.67;102760.53;6179563;23;20020;-69
2023/01/29 07:41:00;;;;;;;45.42;28.42;;;;;;;4.96;55.82;102757.88;6180513;23;20017;-69
2023/01/29 07:43:29;;;;;;;42.95;26.15;;;;;;;4.98;55.60;102761.38;6180703;23;20401;-69
2023/01/29 07:45:55;;;;;;;40.67;26.20;;;;;;;4.98;55.69;102759.59;6181228;23;20046;-69
2023/01/29 07:48:22;;;;;;;45.50;26.17;;;;;;;4.99;55.67;102758.69;6181232;23;20013;-69
2023/01/29 07:50:55;;;;;;;44.60;26.38;;;;;;;5.01;55.62;102761.31;6181835;23;20099;-70
2023/01/29 07:53:22;;;;;;;41.45;26.02;;;;;;;5.02;55.74;102760.41;6181418;23;20088;-69
2023/01/29 07:55:49;;;;;;;42.45;25.67;;;;;;;5.04;55.66;102763.94;6181141;23;20390;-69
2023/01/29 07:58:16;;;;;;;42.35;25.73;;;;;;;5.05;55.72;102763.91;6181315;23;20024;-69
2023/01/29 08:00:43;;;;;;;43.60;26.25;;;;;;;5.06;55.69;102760.34;6181429;23;20017;-69
2023/01/29 08:03:15;;;;;;;47.05;27.48;;;;;;;5.07;55.59;102762.09;6181231;23;20013;-69
2023/01/29 08:05:43;;;;;;;44.92;27.55;;;;;;;5.08;55.56;102753.19;6181233;22;20009;-69
2023/01/29 08:08:10;;;;;;;45.90;27.73;;;;;;;5.08;55.64;102761.19;6181406;23;20023;-69
2023/01/29 08:10:38;;;;;;;41.20;26.40;;;;;;;5.07;55.72;102767.44;6181822;23;20027;-69
2023/01/29 08:13:06;;;;;;;39.70;25.85;;;;;;;5.07;55.76;102766.53;6180855;23;20014;-70
2023/01/29 08:15:33;;;;;;;44.88;28.23;;;;;;;5.09;55.60;102759.41;6181975;22;20330;-70
2023/01/29 08:18:03;;;;;;;42.80;26.58;;;;;;;5.09;55.83;102751.41;6184228;23;20017;-69
2023/01/29 08:20:29;;;;;;;42.55;26.27;;;;;;;5.08;55.74;102747.88;6187849;22;20040;-69
2023/01/29 08:23:05;;;;;;;42.53;26.52;;;;;;;5.09;55.78;102748.75;6182252;23;20020;-69
2023/01/29 08:25:33;;;;;;;41.72;25.73;;;;;;;5.08;55.70;102739.88;6180995;23;20096;-70
2023/01/29 08:28:00;;;;;;;40.97;25.23;;;;;;;5.10;55.74;102742.53;6181600;23;20039;-69
2023/01/29 08:30:29;;;;;;;41.88;25.98;;;;;;;5.09;55.74;102738.97;6181645;23;20125;-69
2023/01/29 08:32:56;;;;;;;41.25;26.15;;;;;;;5.11;55.67;102733.63;6181220;23;20051;-70
2023/01/29 08:35:23;;;;;;;41.85;25.52;;;;;;;5.13;55.55;102725.59;6181310;23;20023;-69
2023/01/29 08:38:02;;;;;;;41.58;26.13;;;;;;;5.13;55.92;102721.16;6180836;23;20013;-69
2023/01/29 08:40:30;;;;;;;42.65;26.70;;;;;;;5.13;55.82;102720.28;6180711;23;20062;-70
2023/01/29 08:43:04;;;;;;;40.55;24.73;;;;;;;5.13;55.80;102728.28;6154893;23;20021;-69
2023/01/29 08:45:36;;;;;;;42.75;27.45;;;;;;;5.14;55.82;102727.38;6180890;23;20013;-70
2023/01/29 08:48:03;;;;;;;40.97;26.40;;;;;;;5.16;55.71;102730.88;6181365;23;20017;-70
2023/01/29 08:50:31;;;;;;;43.38;26.67;;;;;;;5.15;55.80;102731.78;6181289;23;20017;-70
2023/01/29 08:52:58;;;;;;;45.35;27.80;;;;;;;5.15;55.83;102723.78;6181346;23;20013;-67
2023/01/29 08:55:27;;;;;;;41.85;26.45;;;;;;;5.15;56.04;102713.13;6180697;22;20017;-67
2023/01/29 08:57:56;;;;;;;44.83;27.65;;;;;;;5.14;55.94;102709.59;6180592;23;20439;-67
2023/01/29 09:00:22;;;;;;;43.30;27.20;;;;;;;5.17;56.03;102709.53;6181690;23;20013;-67
2023/01/29 09:02:49;;;;;;;43.58;27.27;;;;;;;5.18;56.02;102705.97;6180671;23;20016;-67
2023/01/29 09:05:15;;;;;;;40.03;25.75;;;;;;;5.18;56.03;102708.63;6180663;23;20062;-66
2023/01/29 09:07:43;;;;;;;39.15;26.58;;;;;;;5.16;55.96;102706.91;6178879;23;20021;-67
2023/01/29 09:10:11;;;;;;;44.72;26.02;;;;;;;5.15;55.92;102700.69;6178179;23;20055;-67
2023/01/29 09:12:37;;;;;;;42.85;25.83;;;;;;;5.17;55.95;102698.00;6178444;23;20013;-67
2023/01/29 09:15:04;;;;;;;41.92;26.63;;;;;;;5.20;56.10;102703.28;6178184;23;20017;-67
2023/01/29 09:17:31;;;;;;;44.50;26.10;;;;;;;5.23;56.28;102688.16;6178129;23;20017;-67
2023/01/29 09:19:57;;;;;;;45.20;26.85;;;;;;;5.25;56.17;102691.66;6152297;23;20052;-66
2023/01/29 09:22:24;;;;;;;40.15;25.88;;;;;;;5.28;56.15;102690.72;6179296;22;20028;-67
2023/01/29 09:24:51;;;;;;;42.17;25.48;;;;;;;5.32;56.33;102695.09;6179986;23;20495;-66
2023/01/29 09:27:17;;;;;;;43.45;26.73;;;;;;;5.37;56.22;102698.53;6180440;22;20028;-69
2023/01/29 09:29:44;;;;;;;39.35;25.23;;;;;;;5.42;56.04;102691.31;6179294;23;20488;-67
2023/01/29 09:32:10;;;;;;;40.00;25.63;;;;;;;5.44;56.10;102694.84;6180299;23;20024;-66
2023/01/29 09:34:37;;;;;;;44.22;26.90;;;;;;;5.46;56.16;102692.13;6180337;22;20024;-66
2023/01/29 09:37:03;;;;;;;40.80;25.73;;;;;;;5.49;56.07;102695.63;6180651;23;20023;-66
2023/01/29 09:39:30;;;;;;;43.28;26.42;;;;;;;5.52;56.18;102702.66;6180267;23;20017;-67
2023/01/29 09:42:11;;;;;;;40.97;26.23;;;;;;;5.57;56.22;102709.66;6179729;23;20021;-67
2023/01/29 09:44:53;;;;;;;41.05;25.52;;;;;;;5.60;56.15;102704.28;6180298;23;20010;-67
2023/01/29 09:47:23;;;;;;;40.97;26.25;;;;;;;5.63;56.15;102706.88;6180567;23;20017;-66
2023/01/29 09:49:58;;;;;;;40.65;26.33;;;;;;;5.67;56.23;102702.34;6180419;23;20013;-66
2023/01/29 09:52:44;;;;;;;39.35;25.98;;;;;;;5.70;56.10;102703.16;6180442;23;20092;-65
2023/01/29 09:55:34;;;;;;;39.78;25.50;;;;;;;5.72;56.20;102696.00;6180417;23;20029;-67
2023/01/29 09:58:29;;;;;;;41.47;26.13;;;;;;;5.74;56.13;102704.84;6180135;22;20017;-68
2023/01/29 10:01:20;;;;;;;41.17;25.83;;;;;;;5.75;56.04;102698.63;6180359;23;20540;-66
2023/01/29 10:03:46;;;;;;;39.97;25.90;;;;;;;5.78;56.06;102704.78;6179750;23;20017;-67
2023/01/29 10:06:47;;;;;;;41.13;25.73;;;;;;;5.82;56.15;102703.81;6180665;23;20389;-67
2023/01/29 10:09:40;;;;;;;39.05;25.45;;;;;;;5.85;56.06;102701.97;6180272;23;20021;-66
2023/01/29 10:12:12;;;;;;;41.35;26.13;;;;;;;5.91;56.11;102698.31;6179984;23;20017;-66
2023/01/29 10:14:41;;;;;;;39.78;25.45;;;;;;;5.94;56.08;102693.78;6180399;23;20039;-66
2023/01/29 10:17:12;;;;;;;42.13;26.33;;;;;;;5.96;56.11;102699.13;6180387;23;20516;-66
2023/01/29 10:20:05;;;;;;;39.92;26.08;;;;;;;5.98;56.18;102698.16;6179849;23;20040;-67
2023/01/29 10:22:53;;;;;;;38.90;25.60;;;;;;;6.01;56.00;102703.44;6182629;23;20372;-67
2023/01/29 10:25:21;;;;;;;40.60;25.80;;;;;;;6.03;56.08;102695.41;6180028;22;20019;-67
2023/01/29 10:27:57;;;;;;;37.70;25.15;;;;;;;6.04;56.06;102694.50;6180585;23;20319;-66
2023/01/29 10:30:33;;;;;;;39.88;25.95;;;;;;;6.07;56.04;102698.88;6180074;22;20029;-67
2023/01/29 10:33:05;;;;;;;40.10;26.13;;;;;;;6.09;56.02;102699.72;6180072;23;20021;-66
2023/01/29 10:35:39;;;;;;;39.50;24.90;;;;;;;6.12;56.06;102699.66;6180565;23;20084;-67
2023/01/29 10:38:44;;;;;;;37.13;24.48;;;;;;;6.13;55.93;102702.28;6180491;23;20017;-66
2023/01/29 10:41:33;;;;;;;35.67;25.42;;;;;;;6.15;55.93;102708.47;6180334;23;20028;-66
2023/01/29 10:44:18;;;;;;;40.50;24.10;;;;;;;6.17;56.09;102698.63;6181313;23;20044;-66
2023/01/29 10:47:00;;;;;;;35.22;23.48;;;;;;;6.20;55.96;102695.00;6180731;23;20017;-67
2023/01/29 10:49:50;;;;;;;39.05;24.83;;;;;;;6.22;55.83;102688.72;6180640;22;20025;-65
2023/01/29 10:52:44;;;;;;;38.55;25.15;;;;;;;6.26;55.84;102687.75;6165106;23;20040;-66
2023/01/29 10:55:27;;;;;;;38.83;25.10;;;;;;;6.30;55.81;102681.41;6180624;23;20044;-66
2023/01/29 10:58:16;;;;;;;36.40;25.33;;;;;;;6.30;55.90;102672.53;6180875;23;20051;-66
2023/01/29 11:00:43;;;;;;;36.72;24.77;;;;;;;6.32;55.91;102676.03;6180884;22;20017;-65
2023/01/29 11:03:26;;;;;;;41.25;24.83;;;;;;;6.33;55.91;102660.00;6154041;23;20021;-67
2023/01/29 11:06:06;;;;;;;36.00;23.95;;;;;;;6.40;55.79;102654.50;6180620;23;20024;-66
2023/01/29 11:08:51;;;;;;;34.75;23.88;;;;;;;6.43;55.90;102644.63;6153914;23;20491;-66
2023/01/29 11:11:21;;;;;;;32.13;22.47;;;;;;;6.47;55.87;102645.44;6179814;23;20019;-67
2023/01/29 11:14:04;;;;;;;33.30;22.17;;;;;;;6.48;55.85;102631.16;6179611;23;20021;-66
2023/01/29 11:16:32;;;;;;;34.25;23.27;;;;;;;6.51;55.74;102629.28;6181130;23;20042;-67
2023/01/29 11:19:00;;;;;;;33.10;22.70;;;;;;;6.55;55.69;102617.63;6181528;23;20455;-66
2023/01/29 11:21:28;;;;;;;33.17;22.40;;;;;;;6.55;55.77;102620.28;6155294;22;20020;-65
2023/01/29 11:24:14;;;;;;;35.03;23.13;;;;;;;6.57;55.69;102622.94;6181146;23;20018;-66
2023/01/29 11:26:42;;;;;;;29.55;20.63;;;;;;;6.60;55.79;102615.72;6181439;23;20021;-67
2023/01/29 11:29:35;;;;;;;30.77;21.48;;;;;;;6.65;55.61;102615.59;6181474;22;20432;-67
2023/01/29 11:32:33;;;;;;;31.45;21.30;;;;;;;6.68;55.69;102610.16;6181167;23;20017;-67
2023/01/29 11:35:18;;;;;;;33.42;21.88;;;;;;;6.74;55.68;102599.34;6186965;23;20540;-66
2023/01/29 11:37:46;;;;;;;46.15;23.55;;;;;;;6.79;55.61;102588.53;6179876;22;20021;-67
2023/01/29 11:40:19;;;;;;;29.63;21.15;;;;;;;6.83;55.53;102582.19;6154376;23;20018;-67
2023/01/29 11:42:46;;;;;;;28.50;20.42;;;;;;;6.86;55.54;102582.13;6179982;23;20021;-66
2023/01/29 11:45:18;;;;;;;30.67;21.58;;;;;;;6.89;55.54;102572.22;6180637;23;20013;-67
2023/01/29 11:47:51;;;;;;;34.08;20.77;;;;;;;6.91;55.48;102565.03;6180464;23;20037;-66
2023/01/29 11:50:24;;;;;;;27.90;19.30;;;;;;;6.94;55.49;102561.41;6180740;23;20071;-67
2023/01/29 11:52:51;;;;;;;29.02;20.73;;;;;;;6.98;55.51;102553.25;6180294;23;20025;-66
2023/01/29 11:55:21;;;;;;;28.70;19.70;;;;;;;7.03;55.39;102553.13;6180298;23;20039;-67
2023/01/29 11:57:53;;;;;;;29.33;20.30;;;;;;;7.07;55.36;102548.56;6180288;23;20020;-67
2023/01/29 12:00:24;;;;;;;28.33;20.55;;;;;;;7.11;55.44;102542.22;6181066;23;20041;-67
2023/01/29 12:03:06;;;;;;;30.35;21.60;;;;;;;7.13;55.55;102535.91;6180321;23;20029;-67
2023/01/29 12:05:33;;;;;;;28.83;20.08;;;;;;;7.16;55.26;102532.28;6180752;23;20452;-67
2023/01/29 12:08:01;;;;;;;27.58;19.33;;;;;;;7.17;55.24;102531.34;6181063;23;20229;-66
2023/01/29 12:10:27;;;;;;;31.05;20.92;;;;;;;7.18;54.99;102525.09;6180734;23;20017;-66
2023/01/29 12:13:04;;;;;;;27.55;19.33;;;;;;;7.19;55.25;102522.38;6180598;23;20088;-66
2023/01/29 12:15:31;;;;;;;30.15;19.58;;;;;;;7.21;55.00;102516.97;6180707;23;20244;-67
2023/01/29 12:18:01;;;;;;;26.08;18.92;;;;;;;7.23;54.95;102520.47;6180862;23;20084;-66